sensor_id;sensor_type;location;lat;lon;timestamp;temperature;humidity
152;DHT22;68;48.792;9.164;2024-02-15T00:00:20;12.30;95.20
152;DHT22;68;48.792;9.164;2024-02-15T00:02:48;12.30;95.10
152;DHT22;68;48.792;9.164;2024-02-15T00:05:16;12.20;95.00
152;DHT22;68;48.792;9.164;2024-02-15T00:07:43;12.30;95.30
152;DHT22;68;48.792;9.164;2024-02-15T00:10:12;12.00;95.40
152;DHT22;68;48.792;9.164;2024-02-15T00:12:39;11.90;95.20
152;DHT22;68;48.792;9.164;2024-02-15T00:15:07;11.80;95.30
152;DHT22;68;48.792;9.164;2024-02-15T00:17:34;11.80;95.30
152;DHT22;68;48.792;9.164;2024-02-15T00:20:01;11.80;95.20
152;DHT22;68;48.792;9.164;2024-02-15T00:22:31;11.90;95.50
152;DHT22;68;48.792;9.164;2024-02-15T00:24:58;12.10;95.50
152;DHT22;68;48.792;9.164;2024-02-15T00:27:25;12.30;95.30
152;DHT22;68;48.792;9.164;2024-02-15T00:29:52;12.40;95.10
152;DHT22;68;48.792;9.164;2024-02-15T00:32:19;12.20;95.00
152;DHT22;68;48.792;9.164;2024-02-15T00:34:45;12.00;95.20
152;DHT22;68;48.792;9.164;2024-02-15T00:37:12;11.90;95.30
152;DHT22;68;48.792;9.164;2024-02-15T00:39:40;12.00;95.50
152;DHT22;68;48.792;9.164;2024-02-15T00:42:07;11.90;95.40
152;DHT22;68;48.792;9.164;2024-02-15T00:44:34;11.50;95.20
152;DHT22;68;48.792;9.164;2024-02-15T00:47:01;11.40;94.70
152;DHT22;68;48.792;9.164;2024-02-15T00:49:28;11.30;93.90
152;DHT22;68;48.792;9.164;2024-02-15T00:51:54;11.30;94.40
152;DHT22;68;48.792;9.164;2024-02-15T00:54:21;11.30;94.00
152;DHT22;68;48.792;9.164;2024-02-15T00:56:50;11.20;93.50
152;DHT22;68;48.792;9.164;2024-02-15T00:59:17;11.10;92.80
152;DHT22;68;48.792;9.164;2024-02-15T01:01:44;11.10;92.30
152;DHT22;68;48.792;9.164;2024-02-15T01:04:12;11.00;92.10
152;DHT22;68;48.792;9.164;2024-02-15T01:06:38;10.90;91.70
152;DHT22;68;48.792;9.164;2024-02-15T01:09:07;11.00;90.70
152;DHT22;68;48.792;9.164;2024-02-15T01:11:35;11.20;92.40
152;DHT22;68;48.792;9.164;2024-02-15T01:14:04;11.50;93.80
152;DHT22;68;48.792;9.164;2024-02-15T01:16:34;11.90;95.10
152;DHT22;68;48.792;9.164;2024-02-15T01:19:01;11.90;95.20
152;DHT22;68;48.792;9.164;2024-02-15T01:21:28;12.10;95.60
152;DHT22;68;48.792;9.164;2024-02-15T01:23:55;12.30;95.20
152;DHT22;68;48.792;9.164;2024-02-15T01:26:21;12.40;94.90
152;DHT22;68;48.792;9.164;2024-02-15T01:28:49;12.60;94.70
152;DHT22;68;48.792;9.164;2024-02-15T01:31:17;12.40;94.50
152;DHT22;68;48.792;9.164;2024-02-15T01:33:44;12.40;94.50
152;DHT22;68;48.792;9.164;2024-02-15T01:36:14;12.20;94.90
152;DHT22;68;48.792;9.164;2024-02-15T01:38:41;12.00;95.30
152;DHT22;68;48.792;9.164;2024-02-15T01:41:08;11.90;95.20
152;DHT22;68;48.792;9.164;2024-02-15T01:43:35;11.40;95.20
152;DHT22;68;48.792;9.164;2024-02-15T01:46:08;11.00;94.10
152;DHT22;68;48.792;9.164;2024-02-15T01:48:37;10.80;92.90
152;DHT22;68;48.792;9.164;2024-02-15T01:51:06;10.80;90.70
152;DHT22;68;48.792;9.164;2024-02-15T01:53:33;10.90;92.00
152;DHT22;68;48.792;9.164;2024-02-15T01:56:00;10.70;92.20
152;DHT22;68;48.792;9.164;2024-02-15T01:58:27;10.80;93.00
152;DHT22;68;48.792;9.164;2024-02-15T02:00:57;10.80;92.80
152;DHT22;68;48.792;9.164;2024-02-15T02:03:24;10.80;91.70
152;DHT22;68;48.792;9.164;2024-02-15T02:05:53;10.70;92.50
152;DHT22;68;48.792;9.164;2024-02-15T02:08:20;10.70;92.50
152;DHT22;68;48.792;9.164;2024-02-15T02:10:47;10.50;92.40
152;DHT22;68;48.792;9.164;2024-02-15T02:13:14;10.40;91.40
152;DHT22;68;48.792;9.164;2024-02-15T02:15:41;10.40;91.10
152;DHT22;68;48.792;9.164;2024-02-15T02:18:08;10.40;90.80
152;DHT22;68;48.792;9.164;2024-02-15T02:20:36;10.40;90.60
152;DHT22;68;48.792;9.164;2024-02-15T02:23:08;10.50;89.70
152;DHT22;68;48.792;9.164;2024-02-15T02:25:37;10.50;92.30
152;DHT22;68;48.792;9.164;2024-02-15T02:28:05;10.50;92.20
152;DHT22;68;48.792;9.164;2024-02-15T02:30:32;10.60;93.20
152;DHT22;68;48.792;9.164;2024-02-15T02:33:00;10.40;91.70
152;DHT22;68;48.792;9.164;2024-02-15T02:35:27;10.30;91.40
152;DHT22;68;48.792;9.164;2024-02-15T02:37:56;10.30;90.80
152;DHT22;68;48.792;9.164;2024-02-15T02:40:23;10.40;90.60
152;DHT22;68;48.792;9.164;2024-02-15T02:42:52;10.30;91.00
152;DHT22;68;48.792;9.164;2024-02-15T02:45:21;10.30;90.60
152;DHT22;68;48.792;9.164;2024-02-15T02:47:49;10.20;91.30
152;DHT22;68;48.792;9.164;2024-02-15T02:50:17;10.00;89.00
152;DHT22;68;48.792;9.164;2024-02-15T02:52:44;10.20;90.60
152;DHT22;68;48.792;9.164;2024-02-15T02:55:11;10.20;90.90
152;DHT22;68;48.792;9.164;2024-02-15T02:57:38;10.30;91.30
152;DHT22;68;48.792;9.164;2024-02-15T03:00:08;10.20;90.90
152;DHT22;68;48.792;9.164;2024-02-15T03:02:38;10.20;90.60
152;DHT22;68;48.792;9.164;2024-02-15T03:05:05;10.00;90.10
152;DHT22;68;48.792;9.164;2024-02-15T03:07:34;10.10;91.10
152;DHT22;68;48.792;9.164;2024-02-15T03:10:01;10.20;90.30
152;DHT22;68;48.792;9.164;2024-02-15T03:12:30;10.40;93.00
152;DHT22;68;48.792;9.164;2024-02-15T03:14:57;10.30;93.30
152;DHT22;68;48.792;9.164;2024-02-15T03:17:25;10.20;93.00
152;DHT22;68;48.792;9.164;2024-02-15T03:19:51;9.90;90.70
152;DHT22;68;48.792;9.164;2024-02-15T03:22:18;9.80;86.40
152;DHT22;68;48.792;9.164;2024-02-15T03:24:46;9.80;87.80
152;DHT22;68;48.792;9.164;2024-02-15T03:27:12;9.90;89.40
152;DHT22;68;48.792;9.164;2024-02-15T03:29:39;9.70;88.80
152;DHT22;68;48.792;9.164;2024-02-15T03:32:06;9.60;87.80
152;DHT22;68;48.792;9.164;2024-02-15T03:34:36;9.60;86.60
152;DHT22;68;48.792;9.164;2024-02-15T03:37:05;9.60;84.30
152;DHT22;68;48.792;9.164;2024-02-15T03:39:31;9.50;85.50
152;DHT22;68;48.792;9.164;2024-02-15T03:41:59;9.40;82.30
152;DHT22;68;48.792;9.164;2024-02-15T03:44:25;9.70;83.70
152;DHT22;68;48.792;9.164;2024-02-15T03:46:55;9.70;89.90
152;DHT22;68;48.792;9.164;2024-02-15T03:49:22;9.50;87.70
152;DHT22;68;48.792;9.164;2024-02-15T03:51:54;9.50;87.30
152;DHT22;68;48.792;9.164;2024-02-15T03:54:21;9.40;83.80
152;DHT22;68;48.792;9.164;2024-02-15T03:56:49;9.20;81.70
152;DHT22;68;48.792;9.164;2024-02-15T03:59:18;9.30;82.50
152;DHT22;68;48.792;9.164;2024-02-15T04:01:47;9.30;81.90
152;DHT22;68;48.792;9.164;2024-02-15T04:04:14;9.30;81.00
152;DHT22;68;48.792;9.164;2024-02-15T04:06:40;9.40;83.00
152;DHT22;68;48.792;9.164;2024-02-15T04:09:09;9.30;82.30
152;DHT22;68;48.792;9.164;2024-02-15T04:11:37;9.40;81.10
152;DHT22;68;48.792;9.164;2024-02-15T04:14:04;9.50;84.30
152;DHT22;68;48.792;9.164;2024-02-15T04:16:32;9.60;84.00
152;DHT22;68;48.792;9.164;2024-02-15T04:19:01;9.90;86.10
152;DHT22;68;48.792;9.164;2024-02-15T04:21:28;10.00;91.50
152;DHT22;68;48.792;9.164;2024-02-15T04:23:58;9.90;89.30
152;DHT22;68;48.792;9.164;2024-02-15T04:26:28;10.20;90.40
152;DHT22;68;48.792;9.164;2024-02-15T04:28:57;10.00;91.30
152;DHT22;68;48.792;9.164;2024-02-15T04:31:24;10.30;91.30
152;DHT22;68;48.792;9.164;2024-02-15T04:33:53;10.50;93.90
152;DHT22;68;48.792;9.164;2024-02-15T04:36:22;10.40;93.60
152;DHT22;68;48.792;9.164;2024-02-15T04:38:50;10.60;93.70
152;DHT22;68;48.792;9.164;2024-02-15T04:41:17;10.50;94.90
152;DHT22;68;48.792;9.164;2024-02-15T04:43:50;10.10;93.00
152;DHT22;68;48.792;9.164;2024-02-15T04:46:17;10.10;90.40
152;DHT22;68;48.792;9.164;2024-02-15T04:48:46;10.30;93.10
152;DHT22;68;48.792;9.164;2024-02-15T04:51:14;10.10;92.40
152;DHT22;68;48.792;9.164;2024-02-15T04:53:42;10.10;90.90
152;DHT22;68;48.792;9.164;2024-02-15T04:56:08;10.10;91.60
152;DHT22;68;48.792;9.164;2024-02-15T04:58:39;10.10;91.90
152;DHT22;68;48.792;9.164;2024-02-15T05:01:13;10.00;90.50
152;DHT22;68;48.792;9.164;2024-02-15T05:03:40;10.20;90.30
152;DHT22;68;48.792;9.164;2024-02-15T05:06:07;10.40;93.00
152;DHT22;68;48.792;9.164;2024-02-15T05:08:35;10.70;94.40
152;DHT22;68;48.792;9.164;2024-02-15T05:11:08;10.50;95.10
152;DHT22;68;48.792;9.164;2024-02-15T05:13:38;10.20;93.80
152;DHT22;68;48.792;9.164;2024-02-15T05:16:07;10.30;93.20
152;DHT22;68;48.792;9.164;2024-02-15T05:18:35;10.50;93.90
152;DHT22;68;48.792;9.164;2024-02-15T05:21:04;10.60;94.90
152;DHT22;68;48.792;9.164;2024-02-15T05:23:34;10.80;95.30
152;DHT22;68;48.792;9.164;2024-02-15T05:26:01;10.80;95.50
152;DHT22;68;48.792;9.164;2024-02-15T05:28:28;10.70;95.10
152;DHT22;68;48.792;9.164;2024-02-15T05:31:09;10.80;95.30
152;DHT22;68;48.792;9.164;2024-02-15T05:33:38;10.80;95.90
152;DHT22;68;48.792;9.164;2024-02-15T05:36:06;10.60;95.30
152;DHT22;68;48.792;9.164;2024-02-15T05:38:34;10.90;95.70
152;DHT22;68;48.792;9.164;2024-02-15T05:41:01;11.10;95.80
152;DHT22;68;48.792;9.164;2024-02-15T05:43:28;11.10;95.60
152;DHT22;68;48.792;9.164;2024-02-15T05:45:55;11.20;95.40
152;DHT22;68;48.792;9.164;2024-02-15T05:48:23;10.90;95.70
152;DHT22;68;48.792;9.164;2024-02-15T05:50:52;10.50;95.70
152;DHT22;68;48.792;9.164;2024-02-15T05:53:20;10.40;95.70
152;DHT22;68;48.792;9.164;2024-02-15T05:55:47;10.30;95.00
152;DHT22;68;48.792;9.164;2024-02-15T05:58:15;10.50;95.50
152;DHT22;68;48.792;9.164;2024-02-15T06:00:42;10.80;95.60
152;DHT22;68;48.792;9.164;2024-02-15T06:03:10;10.90;95.70
152;DHT22;68;48.792;9.164;2024-02-15T06:05:38;10.90;95.80
152;DHT22;68;48.792;9.164;2024-02-15T06:08:06;10.60;95.60
152;DHT22;68;48.792;9.164;2024-02-15T06:10:33;10.40;95.70
152;DHT22;68;48.792;9.164;2024-02-15T06:13:00;10.50;95.80
152;DHT22;68;48.792;9.164;2024-02-15T06:15:27;10.50;95.80
152;DHT22;68;48.792;9.164;2024-02-15T06:17:53;10.50;95.70
152;DHT22;68;48.792;9.164;2024-02-15T06:20:20;10.60;95.80
152;DHT22;68;48.792;9.164;2024-02-15T06:22:48;10.60;96.00
152;DHT22;68;48.792;9.164;2024-02-15T06:25:16;10.60;96.10
152;DHT22;68;48.792;9.164;2024-02-15T06:27:46;10.60;96.00
152;DHT22;68;48.792;9.164;2024-02-15T06:30:14;10.50;95.70
152;DHT22;68;48.792;9.164;2024-02-15T06:32:59;10.50;95.90
152;DHT22;68;48.792;9.164;2024-02-15T06:35:43;10.30;95.90
152;DHT22;68;48.792;9.164;2024-02-15T06:38:27;10.30;96.00
152;DHT22;68;48.792;9.164;2024-02-15T06:41:13;10.30;95.90
152;DHT22;68;48.792;9.164;2024-02-15T06:43:40;10.30;95.60
152;DHT22;68;48.792;9.164;2024-02-15T06:46:07;10.30;95.70
152;DHT22;68;48.792;9.164;2024-02-15T06:48:35;10.20;95.80
152;DHT22;68;48.792;9.164;2024-02-15T06:51:02;10.40;95.80
152;DHT22;68;48.792;9.164;2024-02-15T06:53:29;10.30;95.90
152;DHT22;68;48.792;9.164;2024-02-15T06:55:56;10.10;96.00
152;DHT22;68;48.792;9.164;2024-02-15T06:58:24;10.00;95.90
152;DHT22;68;48.792;9.164;2024-02-15T07:00:52;9.80;95.40
152;DHT22;68;48.792;9.164;2024-02-15T07:03:19;9.80;95.10
152;DHT22;68;48.792;9.164;2024-02-15T07:05:48;10.10;95.90
152;DHT22;68;48.792;9.164;2024-02-15T07:08:15;10.10;95.30
152;DHT22;68;48.792;9.164;2024-02-15T07:10:42;10.30;95.60
152;DHT22;68;48.792;9.164;2024-02-15T07:13:09;10.30;95.70
152;DHT22;68;48.792;9.164;2024-02-15T07:15:37;10.40;95.80
152;DHT22;68;48.792;9.164;2024-02-15T07:18:04;10.50;95.70
152;DHT22;68;48.792;9.164;2024-02-15T07:20:32;10.80;95.90
152;DHT22;68;48.792;9.164;2024-02-15T07:22:59;10.70;95.70
152;DHT22;68;48.792;9.164;2024-02-15T07:25:26;10.80;95.30
152;DHT22;68;48.792;9.164;2024-02-15T07:27:53;10.60;95.60
152;DHT22;68;48.792;9.164;2024-02-15T07:30:20;10.90;95.60
152;DHT22;68;48.792;9.164;2024-02-15T07:32:49;10.90;94.90
152;DHT22;68;48.792;9.164;2024-02-15T07:35:16;10.70;95.10
152;DHT22;68;48.792;9.164;2024-02-15T07:37:51;11.00;95.40
152;DHT22;68;48.792;9.164;2024-02-15T07:40:21;11.00;94.70
152;DHT22;68;48.792;9.164;2024-02-15T07:42:48;10.80;95.40
152;DHT22;68;48.792;9.164;2024-02-15T07:45:15;10.70;95.60
152;DHT22;68;48.792;9.164;2024-02-15T07:47:43;10.70;95.60
152;DHT22;68;48.792;9.164;2024-02-15T07:50:15;11.00;95.50
152;DHT22;68;48.792;9.164;2024-02-15T07:52:45;11.20;94.50
152;DHT22;68;48.792;9.164;2024-02-15T07:55:12;11.60;93.40
152;DHT22;68;48.792;9.164;2024-02-15T07:57:39;11.80;91.90
152;DHT22;68;48.792;9.164;2024-02-15T08:00:07;12.00;91.40
152;DHT22;68;48.792;9.164;2024-02-15T08:02:37;11.80;91.30
152;DHT22;68;48.792;9.164;2024-02-15T08:05:06;11.80;91.30
152;DHT22;68;48.792;9.164;2024-02-15T08:07:37;11.90;90.70
152;DHT22;68;48.792;9.164;2024-02-15T08:10:05;12.00;90.80
152;DHT22;68;48.792;9.164;2024-02-15T08:12:33;12.10;90.70
152;DHT22;68;48.792;9.164;2024-02-15T08:15:00;12.00;90.50
152;DHT22;68;48.792;9.164;2024-02-15T08:17:27;12.10;90.20
152;DHT22;68;48.792;9.164;2024-02-15T08:19:54;12.10;90.40
152;DHT22;68;48.792;9.164;2024-02-15T08:22:21;12.20;89.70
152;DHT22;68;48.792;9.164;2024-02-15T08:24:52;12.30;88.70
152;DHT22;68;48.792;9.164;2024-02-15T08:27:19;12.40;88.90
152;DHT22;68;48.792;9.164;2024-02-15T08:29:45;12.50;88.70
152;DHT22;68;48.792;9.164;2024-02-15T08:32:12;12.50;89.30
152;DHT22;68;48.792;9.164;2024-02-15T08:34:40;12.50;88.70
152;DHT22;68;48.792;9.164;2024-02-15T08:37:06;12.70;87.90
152;DHT22;68;48.792;9.164;2024-02-15T08:39:33;12.80;87.60
152;DHT22;68;48.792;9.164;2024-02-15T08:42:01;12.90;86.80
152;DHT22;68;48.792;9.164;2024-02-15T08:44:29;13.00;86.80
152;DHT22;68;48.792;9.164;2024-02-15T08:46:56;13.00;87.20
152;DHT22;68;48.792;9.164;2024-02-15T08:49:23;13.10;86.70
152;DHT22;68;48.792;9.164;2024-02-15T08:51:51;13.10;86.50
152;DHT22;68;48.792;9.164;2024-02-15T08:54:17;13.10;86.40
152;DHT22;68;48.792;9.164;2024-02-15T08:56:45;13.10;87.00
152;DHT22;68;48.792;9.164;2024-02-15T08:59:13;13.20;86.40
152;DHT22;68;48.792;9.164;2024-02-15T09:01:41;13.30;85.70
152;DHT22;68;48.792;9.164;2024-02-15T09:04:08;13.30;85.50
152;DHT22;68;48.792;9.164;2024-02-15T09:06:35;13.40;85.50
152;DHT22;68;48.792;9.164;2024-02-15T09:09:02;13.40;85.20
152;DHT22;68;48.792;9.164;2024-02-15T09:11:29;13.40;85.40
152;DHT22;68;48.792;9.164;2024-02-15T09:13:56;13.50;85.40
152;DHT22;68;48.792;9.164;2024-02-15T09:16:25;13.60;85.40
152;DHT22;68;48.792;9.164;2024-02-15T09:18:51;13.70;85.30
152;DHT22;68;48.792;9.164;2024-02-15T09:21:20;13.70;84.10
152;DHT22;68;48.792;9.164;2024-02-15T09:23:47;13.70;84.50
152;DHT22;68;48.792;9.164;2024-02-15T09:26:14;13.40;85.50
152;DHT22;68;48.792;9.164;2024-02-15T09:28:41;13.60;84.80
152;DHT22;68;48.792;9.164;2024-02-15T09:31:08;13.40;85.10
152;DHT22;68;48.792;9.164;2024-02-15T09:33:38;13.70;84.50
152;DHT22;68;48.792;9.164;2024-02-15T09:36:05;14.00;82.70
152;DHT22;68;48.792;9.164;2024-02-15T09:38:32;14.00;82.50
152;DHT22;68;48.792;9.164;2024-02-15T09:40:59;14.10;83.00
152;DHT22;68;48.792;9.164;2024-02-15T09:43:26;14.20;82.30
152;DHT22;68;48.792;9.164;2024-02-15T09:45:55;14.40;82.10
152;DHT22;68;48.792;9.164;2024-02-15T09:48:25;14.30;81.40
152;DHT22;68;48.792;9.164;2024-02-15T09:50:53;14.30;81.50
152;DHT22;68;48.792;9.164;2024-02-15T09:53:22;14.30;81.00
152;DHT22;68;48.792;9.164;2024-02-15T09:55:52;14.20;81.30
152;DHT22;68;48.792;9.164;2024-02-15T09:58:19;14.40;81.10
152;DHT22;68;48.792;9.164;2024-02-15T10:00:48;14.40;80.70
152;DHT22;68;48.792;9.164;2024-02-15T10:03:18;14.50;80.40
152;DHT22;68;48.792;9.164;2024-02-15T10:05:47;14.30;80.70
152;DHT22;68;48.792;9.164;2024-02-15T10:08:16;14.40;80.70
152;DHT22;68;48.792;9.164;2024-02-15T10:10:43;14.60;80.80
152;DHT22;68;48.792;9.164;2024-02-15T10:13:13;14.80;79.90
152;DHT22;68;48.792;9.164;2024-02-15T10:15:40;15.10;78.90
152;DHT22;68;48.792;9.164;2024-02-15T10:18:09;15.10;79.20
152;DHT22;68;48.792;9.164;2024-02-15T10:20:37;15.20;78.70
152;DHT22;68;48.792;9.164;2024-02-15T10:23:10;15.50;77.90
152;DHT22;68;48.792;9.164;2024-02-15T10:25:40;15.70;76.60
152;DHT22;68;48.792;9.164;2024-02-15T10:28:07;15.70;76.40
152;DHT22;68;48.792;9.164;2024-02-15T10:30:35;15.80;76.80
152;DHT22;68;48.792;9.164;2024-02-15T10:33:02;15.20;79.00
152;DHT22;68;48.792;9.164;2024-02-15T10:35:29;14.80;80.10
152;DHT22;68;48.792;9.164;2024-02-15T10:38:05;14.90;80.10
152;DHT22;68;48.792;9.164;2024-02-15T10:40:34;15.00;80.30
152;DHT22;68;48.792;9.164;2024-02-15T10:43:04;14.80;79.50
152;DHT22;68;48.792;9.164;2024-02-15T10:45:31;14.80;80.10
152;DHT22;68;48.792;9.164;2024-02-15T10:47:58;15.10;79.60
152;DHT22;68;48.792;9.164;2024-02-15T10:50:25;15.20;79.10
152;DHT22;68;48.792;9.164;2024-02-15T10:52:55;15.80;76.60
152;DHT22;68;48.792;9.164;2024-02-15T10:55:38;16.20;73.80
152;DHT22;68;48.792;9.164;2024-02-15T10:58:08;16.40;72.20
152;DHT22;68;48.792;9.164;2024-02-15T11:00:35;16.50;72.60
152;DHT22;68;48.792;9.164;2024-02-15T11:03:03;16.70;71.70
152;DHT22;68;48.792;9.164;2024-02-15T11:05:32;16.60;73.20
152;DHT22;68;48.792;9.164;2024-02-15T11:08:02;17.40;71.10
152;DHT22;68;48.792;9.164;2024-02-15T11:10:30;18.30;67.40
152;DHT22;68;48.792;9.164;2024-02-15T11:12:57;18.40;67.30
152;DHT22;68;48.792;9.164;2024-02-15T11:15:43;19.30;65.60
152;DHT22;68;48.792;9.164;2024-02-15T11:18:41;20.30;63.20
152;DHT22;68;48.792;9.164;2024-02-15T11:21:08;20.80;61.70
152;DHT22;68;48.792;9.164;2024-02-15T11:23:35;21.50;60.10
152;DHT22;68;48.792;9.164;2024-02-15T11:26:03;21.20;60.40
152;DHT22;68;48.792;9.164;2024-02-15T11:28:36;21.80;59.50
152;DHT22;68;48.792;9.164;2024-02-15T11:31:05;22.10;58.80
152;DHT22;68;48.792;9.164;2024-02-15T11:33:34;22.10;58.60
152;DHT22;68;48.792;9.164;2024-02-15T11:36:05;22.90;56.90
152;DHT22;68;48.792;9.164;2024-02-15T11:38:32;22.30;57.90
152;DHT22;68;48.792;9.164;2024-02-15T11:41:03;21.50;59.50
152;DHT22;68;48.792;9.164;2024-02-15T11:43:47;21.60;58.90
152;DHT22;68;48.792;9.164;2024-02-15T11:46:19;21.60;59.10
152;DHT22;68;48.792;9.164;2024-02-15T11:48:45;20.90;60.30
152;DHT22;68;48.792;9.164;2024-02-15T11:51:25;20.30;62.10
152;DHT22;68;48.792;9.164;2024-02-15T11:54:07;20.30;61.70
152;DHT22;68;48.792;9.164;2024-02-15T11:56:52;19.80;63.90
152;DHT22;68;48.792;9.164;2024-02-15T11:59:30;19.60;64.30
152;DHT22;68;48.792;9.164;2024-02-15T12:01:59;20.20;62.20
152;DHT22;68;48.792;9.164;2024-02-15T12:04:43;20.10;62.70
152;DHT22;68;48.792;9.164;2024-02-15T12:07:28;20.70;62.30
152;DHT22;68;48.792;9.164;2024-02-15T12:10:16;19.60;64.80
152;DHT22;68;48.792;9.164;2024-02-15T12:13:00;20.30;62.20
152;DHT22;68;48.792;9.164;2024-02-15T12:15:56;20.70;61.50
152;DHT22;68;48.792;9.164;2024-02-15T12:18:42;19.10;63.60
152;DHT22;68;48.792;9.164;2024-02-15T12:21:13;17.90;69.80
152;DHT22;68;48.792;9.164;2024-02-15T12:23:41;17.70;71.40
152;DHT22;68;48.792;9.164;2024-02-15T12:26:08;18.80;67.80
152;DHT22;68;48.792;9.164;2024-02-15T12:28:35;19.40;65.60
152;DHT22;68;48.792;9.164;2024-02-15T12:31:02;18.30;68.50
152;DHT22;68;48.792;9.164;2024-02-15T12:33:32;18.50;68.60
152;DHT22;68;48.792;9.164;2024-02-15T12:36:08;19.30;65.70
152;DHT22;68;48.792;9.164;2024-02-15T12:38:35;18.10;67.90
152;DHT22;68;48.792;9.164;2024-02-15T12:41:03;18.10;68.10
152;DHT22;68;48.792;9.164;2024-02-15T12:43:31;17.60;70.90
152;DHT22;68;48.792;9.164;2024-02-15T12:45:58;18.30;69.20
152;DHT22;68;48.792;9.164;2024-02-15T12:48:24;18.70;67.00
152;DHT22;68;48.792;9.164;2024-02-15T12:50:52;18.80;66.10
152;DHT22;68;48.792;9.164;2024-02-15T12:53:24;18.00;67.20
152;DHT22;68;48.792;9.164;2024-02-15T12:55:55;17.90;68.10
152;DHT22;68;48.792;9.164;2024-02-15T12:58:22;18.20;68.90
152;DHT22;68;48.792;9.164;2024-02-15T13:00:54;18.30;67.50
152;DHT22;68;48.792;9.164;2024-02-15T13:03:24;18.50;67.00
152;DHT22;68;48.792;9.164;2024-02-15T13:05:51;18.50;66.90
152;DHT22;68;48.792;9.164;2024-02-15T13:08:17;18.70;66.70
152;DHT22;68;48.792;9.164;2024-02-15T13:10:46;18.80;66.80
152;DHT22;68;48.792;9.164;2024-02-15T13:13:13;18.60;67.70
152;DHT22;68;48.792;9.164;2024-02-15T13:15:41;18.30;67.90
152;DHT22;68;48.792;9.164;2024-02-15T13:18:09;17.10;70.10
152;DHT22;68;48.792;9.164;2024-02-15T13:20:40;16.50;72.40
152;DHT22;68;48.792;9.164;2024-02-15T13:23:08;16.60;73.40
152;DHT22;68;48.792;9.164;2024-02-15T13:25:41;16.70;73.70
152;DHT22;68;48.792;9.164;2024-02-15T13:28:10;17.20;72.80
152;DHT22;68;48.792;9.164;2024-02-15T13:30:38;17.60;71.00
152;DHT22;68;48.792;9.164;2024-02-15T13:33:06;17.20;72.40
152;DHT22;68;48.792;9.164;2024-02-15T13:35:33;17.30;71.40
152;DHT22;68;48.792;9.164;2024-02-15T13:38:02;17.40;72.60
152;DHT22;68;48.792;9.164;2024-02-15T13:40:29;17.70;70.00
152;DHT22;68;48.792;9.164;2024-02-15T13:42:58;17.60;71.40
152;DHT22;68;48.792;9.164;2024-02-15T13:45:28;17.90;70.10
152;DHT22;68;48.792;9.164;2024-02-15T13:47:58;18.10;69.70
152;DHT22;68;48.792;9.164;2024-02-15T13:50:27;18.00;69.50
152;DHT22;68;48.792;9.164;2024-02-15T13:52:56;18.10;69.00
152;DHT22;68;48.792;9.164;2024-02-15T13:55:24;18.10;68.10
152;DHT22;68;48.792;9.164;2024-02-15T13:57:51;18.30;67.90
152;DHT22;68;48.792;9.164;2024-02-15T14:00:19;18.30;67.40
152;DHT22;68;48.792;9.164;2024-02-15T14:02:51;18.00;67.70
152;DHT22;68;48.792;9.164;2024-02-15T14:05:19;17.90;68.80
152;DHT22;68;48.792;9.164;2024-02-15T14:07:47;18.10;68.10
152;DHT22;68;48.792;9.164;2024-02-15T14:10:15;18.20;68.30
152;DHT22;68;48.792;9.164;2024-02-15T14:12:44;18.30;68.00
152;DHT22;68;48.792;9.164;2024-02-15T14:15:11;18.10;68.60
152;DHT22;68;48.792;9.164;2024-02-15T14:17:38;18.00;67.80
152;DHT22;68;48.792;9.164;2024-02-15T14:20:07;18.10;68.70
152;DHT22;68;48.792;9.164;2024-02-15T14:22:38;18.10;68.30
152;DHT22;68;48.792;9.164;2024-02-15T14:25:06;17.50;70.60
152;DHT22;68;48.792;9.164;2024-02-15T14:27:33;17.60;69.00
152;DHT22;68;48.792;9.164;2024-02-15T14:30:00;17.80;68.50
152;DHT22;68;48.792;9.164;2024-02-15T14:32:45;17.90;68.50
152;DHT22;68;48.792;9.164;2024-02-15T14:35:31;18.20;68.70
152;DHT22;68;48.792;9.164;2024-02-15T14:38:01;18.20;68.40
152;DHT22;68;48.792;9.164;2024-02-15T14:40:28;17.80;68.00
152;DHT22;68;48.792;9.164;2024-02-15T14:42:55;17.70;68.40
152;DHT22;68;48.792;9.164;2024-02-15T14:45:22;17.60;69.10
152;DHT22;68;48.792;9.164;2024-02-15T14:47:49;17.50;70.10
152;DHT22;68;48.792;9.164;2024-02-15T14:50:16;17.60;69.60
152;DHT22;68;48.792;9.164;2024-02-15T14:52:44;17.80;69.20
152;DHT22;68;48.792;9.164;2024-02-15T14:55:10;17.30;70.30
152;DHT22;68;48.792;9.164;2024-02-15T14:57:37;17.50;70.60
152;DHT22;68;48.792;9.164;2024-02-15T15:00:05;17.60;70.60
152;DHT22;68;48.792;9.164;2024-02-15T15:02:36;17.70;70.00
152;DHT22;68;48.792;9.164;2024-02-15T15:05:03;17.40;71.30
152;DHT22;68;48.792;9.164;2024-02-15T15:07:49;17.50;71.80
152;DHT22;68;48.792;9.164;2024-02-15T15:10:33;17.20;71.80
152;DHT22;68;48.792;9.164;2024-02-15T15:13:17;17.50;70.90
152;DHT22;68;48.792;9.164;2024-02-15T15:15:44;17.50;71.80
152;DHT22;68;48.792;9.164;2024-02-15T15:18:12;17.60;71.50
152;DHT22;68;48.792;9.164;2024-02-15T15:20:39;17.70;70.80
152;DHT22;68;48.792;9.164;2024-02-15T15:23:07;17.70;70.40
152;DHT22;68;48.792;9.164;2024-02-15T15:25:35;17.00;71.40
152;DHT22;68;48.792;9.164;2024-02-15T15:28:03;17.00;72.90
152;DHT22;68;48.792;9.164;2024-02-15T15:30:30;17.00;73.50
152;DHT22;68;48.792;9.164;2024-02-15T15:32:57;17.00;72.60
152;DHT22;68;48.792;9.164;2024-02-15T15:35:26;17.00;72.50
152;DHT22;68;48.792;9.164;2024-02-15T15:37:53;17.20;72.00
152;DHT22;68;48.792;9.164;2024-02-15T15:40:21;17.40;71.30
152;DHT22;68;48.792;9.164;2024-02-15T15:42:48;17.30;72.00
152;DHT22;68;48.792;9.164;2024-02-15T15:45:15;17.40;71.80
152;DHT22;68;48.792;9.164;2024-02-15T15:47:42;17.20;72.00
152;DHT22;68;48.792;9.164;2024-02-15T15:50:09;17.20;72.30
152;DHT22;68;48.792;9.164;2024-02-15T15:52:40;17.30;72.10
152;DHT22;68;48.792;9.164;2024-02-15T15:55:07;17.10;72.60
152;DHT22;68;48.792;9.164;2024-02-15T15:57:38;17.00;72.80
152;DHT22;68;48.792;9.164;2024-02-15T16:00:06;17.10;72.20
152;DHT22;68;48.792;9.164;2024-02-15T16:02:40;17.00;72.60
152;DHT22;68;48.792;9.164;2024-02-15T16:05:09;16.90;72.20
152;DHT22;68;48.792;9.164;2024-02-15T16:07:37;16.70;73.60
152;DHT22;68;48.792;9.164;2024-02-15T16:10:07;16.50;74.20
152;DHT22;68;48.792;9.164;2024-02-15T16:12:34;16.60;73.90
152;DHT22;68;48.792;9.164;2024-02-15T16:15:03;16.50;74.30
152;DHT22;68;48.792;9.164;2024-02-15T16:17:31;16.60;73.40
152;DHT22;68;48.792;9.164;2024-02-15T16:20:01;16.40;74.70
152;DHT22;68;48.792;9.164;2024-02-15T16:22:30;16.50;73.90
152;DHT22;68;48.792;9.164;2024-02-15T16:24:57;16.40;74.10
152;DHT22;68;48.792;9.164;2024-02-15T16:27:24;16.10;75.40
152;DHT22;68;48.792;9.164;2024-02-15T16:29:51;16.00;76.10
152;DHT22;68;48.792;9.164;2024-02-15T16:32:19;16.00;75.40
152;DHT22;68;48.792;9.164;2024-02-15T16:34:45;16.20;75.30
152;DHT22;68;48.792;9.164;2024-02-15T16:37:12;16.20;75.00
152;DHT22;68;48.792;9.164;2024-02-15T16:39:39;16.30;75.30
152;DHT22;68;48.792;9.164;2024-02-15T16:42:08;15.90;75.70
152;DHT22;68;48.792;9.164;2024-02-15T16:44:37;15.80;76.60
152;DHT22;68;48.792;9.164;2024-02-15T16:47:04;15.70;77.80
152;DHT22;68;48.792;9.164;2024-02-15T16:49:32;15.70;77.00
152;DHT22;68;48.792;9.164;2024-02-15T16:51:59;15.20;78.70
152;DHT22;68;48.792;9.164;2024-02-15T16:54:26;14.90;79.60
152;DHT22;68;48.792;9.164;2024-02-15T16:56:53;14.80;80.40
152;DHT22;68;48.792;9.164;2024-02-15T16:59:23;14.70;80.40
152;DHT22;68;48.792;9.164;2024-02-15T17:01:51;14.60;81.00
152;DHT22;68;48.792;9.164;2024-02-15T17:04:18;14.60;81.20